Time;durP1;ratioP1;P1;durP2;ratioP2;P2;SDS_P1;SDS_P2;PMS_P1;PMS_P2;Temp;Humidity;BMP_temperature;BMP_pressure;BME280_temperature;BME280_humidity;BME280_pressure;Samples;Min_cycle;Max_cycle;Signal;HPM_P1;HPM_P2
2022/07/27 00:00:48;;;;;;;5.32;1.63;;;15.80;1.00;;;;;;10493095;28;20248;-84
2022/07/27 00:06:10;;;;;;;4.43;1.55;;;15.80;1.00;;;;;;10521748;28;20211;-84
2022/07/27 00:11:31;;;;;;;5.70;1.67;;;15.50;1.00;;;;;;10492672;28;20401;-84
2022/07/27 00:16:53;;;;;;;5.75;1.45;;;15.10;1.00;;;;;;10471008;28;20230;-84
2022/07/27 00:22:15;;;;;;;3.13;1.40;;;15.40;1.00;;;;;;10424395;28;20489;-84
2022/07/27 00:27:38;;;;;;;6.13;1.20;;;;;;;;;;10409785;28;20209;-84
2022/07/27 00:33:00;;;;;;;6.88;1.20;;;;;;;;;;10423897;28;20548;-84
2022/07/27 00:38:21;;;;;;;5.13;1.45;;;;;;;;;;10437376;28;20226;-85
2022/07/27 00:44:11;;;;;;;5.45;1.63;;;;;;;;;;10444461;28;20193;-85
2022/07/27 00:49:33;;;;;;;5.78;1.33;;;;;;;;;;10464177;28;20292;-84
2022/07/27 00:54:55;;;;;;;3.30;0.95;;;;;;;;;;10468572;28;20229;-84
2022/07/27 01:00:18;;;;;;;3.13;1.30;;;;;;;;;;10505480;28;20204;-84
2022/07/27 01:05:41;;;;;;;5.90;1.60;;;;;;;;;;10491305;28;20271;-85
2022/07/27 01:11:05;;;;;;;3.78;1.65;;;;;;;;;;10519082;28;20245;-84
2022/07/27 01:16:27;;;;;;;4.93;1.55;;;;;;;;;;10470016;28;20238;-84
2022/07/27 01:21:50;;;;;;;4.03;1.60;;;;;;;;;;10422528;28;20203;-84
2022/07/27 01:27:14;;;;;;;5.88;1.80;;;;;;;;;;10438609;28;20226;-85
2022/07/27 01:32:35;;;;;;;3.33;1.30;;;15.50;1.00;;;;;;10422017;28;20200;-85
2022/07/27 01:37:57;;;;;;;5.22;1.88;;;15.30;1.00;;;;;;10421879;28;20550;-85
2022/07/27 01:43:20;;;;;;;3.05;1.00;;;15.10;1.00;;;;;;10456044;28;20194;-84
2022/07/27 01:48:41;;;;;;;4.80;1.33;;;15.10;1.00;;;;;;10462968;28;20229;-84
2022/07/27 01:54:03;;;;;;;4.38;1.60;;;15.00;1.00;;;;;;10462691;28;20202;-84
2022/07/27 01:59:24;;;;;;;2.45;1.30;;;15.00;1.00;;;;;;10424170;28;20299;-84
2022/07/27 02:04:46;;;;;;;2.72;1.40;;;;;;;;;;10454711;28;20270;-84
2022/07/27 02:10:08;;;;;;;5.72;1.92;;;;;;;;;;10456849;28;20515;-84
2022/07/27 02:15:31;;;;;;;6.28;2.13;;;;;;;;;;10447744;28;20395;-84
2022/07/27 02:20:52;;;;;;;4.93;1.67;;;14.50;1.00;;;;;;10462575;28;20203;-84
2022/07/27 02:26:14;;;;;;;2.70;1.38;;;14.50;1.00;;;;;;10461885;28;20425;-84
2022/07/27 02:31:36;;;;;;;6.22;1.50;;;;;;;;;;10447948;28;20208;-84
2022/07/27 02:36:57;;;;;;;4.63;1.77;;;;;;;;;;10449860;28;20598;-83
2022/07/27 02:42:19;;;;;;;4.43;1.55;;;14.30;1.00;;;;;;10468839;28;20202;-84
2022/07/27 02:47:41;;;;;;;6.10;1.60;;;;;;;;;;10469234;28;20195;-84
2022/07/27 02:53:03;;;;;;;8.43;1.38;;;14.30;1.00;;;;;;10427243;28;20528;-83
2022/07/27 02:58:26;;;;;;;6.53;1.40;;;;;;;;;;10521315;28;20246;-84
2022/07/27 03:03:49;;;;;;;5.65;1.55;;;;;;;;;;10523997;28;20193;-83
2022/07/27 03:09:14;;;;;;;3.95;1.25;;;;;;;;;;10523328;28;20199;-84
2022/07/27 03:14:37;;;;;;;7.00;2.28;;;;;;;;;;10438938;28;20275;-84
2022/07/27 03:20:00;;;;;;;7.00;1.90;;;;;;;;;;10456678;28;20227;-84
2022/07/27 03:25:24;;;;;;;6.40;1.88;;;;;;;;;;10440083;28;20211;-84
2022/07/27 03:30:47;;;;;;;3.35;1.55;;;;;;;;;;10454010;28;20203;-84
2022/07/27 03:36:12;;;;;;;6.40;1.50;;;;;;;;;;10467869;28;20211;-84
2022/07/27 03:41:35;;;;;;;9.65;3.05;;;;;;;;;;10488913;28;20193;-84
2022/07/27 03:46:57;;;;;;;17.48;2.90;;;;;;;;;;10494677;28;20194;-84
2022/07/27 03:52:20;;;;;;;9.10;2.90;;;;;;;;;;10466207;28;20218;-85
2022/07/27 03:57:42;;;;;;;7.78;2.60;;;;;;;;;;10507594;28;20228;-84
2022/07/27 04:03:04;;;;;;;6.47;2.40;;;;;;;;;;10493157;28;20198;-84
2022/07/27 04:08:27;;;;;;;4.28;1.98;;;;;;;;;;10521437;28;20193;-84
2022/07/27 04:13:50;;;;;;;6.80;1.95;;;;;;;;;;10452240;28;20291;-83
2022/07/27 04:19:12;;;;;;;4.95;1.60;;;;;;;;;;10458572;28;20230;-84
2022/07/27 04:24:35;;;;;;;3.90;1.30;;;;;;;;;;10479278;28;20240;-84
2022/07/27 04:29:58;;;;;;;3.67;1.45;;;;;;;;;;10440525;28;20199;-84
2022/07/27 04:35:21;;;;;;;6.18;1.77;;;;;;;;;;10439681;28;20205;-84
2022/07/27 04:40:47;;;;;;;4.18;1.20;;;;;;;;;;10453906;28;20221;-83
2022/07/27 04:46:13;;;;;;;7.20;1.63;;;;;;;;;;10450405;28;20500;-84
2022/07/27 04:51:35;;;;;;;5.35;1.55;;;;;;;;;;10464275;28;20204;-83
2022/07/27 04:57:00;;;;;;;5.55;1.50;;;;;;;;;;10464128;28;20435;-84
2022/07/27 05:02:27;;;;;;;2.58;1.25;;;;;;;;;;10463101;28;20205;-84
2022/07/27 05:07:49;;;;;;;4.38;1.10;;;;;;;;;;10463822;28;20273;-84
2022/07/27 05:13:12;;;;;;;5.38;1.50;;;;;;;;;;10437064;28;20443;-85
2022/07/27 05:18:35;;;;;;;3.53;1.45;;;;;;;;;;10476996;28;20244;-85
2022/07/27 05:23:59;;;;;;;3.30;1.42;;;;;;;;;;10480144;28;20198;-84
2022/07/27 05:29:24;;;;;;;7.15;1.42;;;;;;;;;;10477698;28;20199;-86
2022/07/27 05:34:48;;;;;;;4.18;1.40;;;;;;;;;;10491381;28;20195;-86
2022/07/27 05:40:13;;;;;;;5.32;1.50;;;;;;;;;;10491551;28;20233;-85
2022/07/27 05:45:38;;;;;;;4.30;1.35;;;;;;;;;;10448743;28;20395;-86
2022/07/27 05:51:02;;;;;;;6.03;1.52;;;;;;;;;;10463354;28;20450;-86
2022/07/27 05:56:26;;;;;;;5.13;1.20;;;;;;;;;;10465767;28;20204;-84
2022/07/27 06:01:47;;;;;;;2.80;1.00;;;;;;;;;;10518027;28;20205;-85
2022/07/27 06:12:50;;;;;;;7.68;1.35;;;;;;;;;;10492656;28;20304;-84
2022/07/27 06:18:16;;;;;;;5.97;1.60;;;;;;;;;;10468309;28;20225;-86
2022/07/27 06:23:38;;;;;;;10.88;1.42;;;;;;;;;;10484133;28;20208;-85
2022/07/27 06:29:00;;;;;;;3.15;1.08;;;;;;;;;;10434153;28;20203;-85
2022/07/27 06:34:24;;;;;;;4.30;1.10;;;;;;;;;;10442199;28;20204;-86
2022/07/27 06:39:49;;;;;;;4.38;1.38;;;;;;;;;;10419334;28;20517;-84
2022/07/27 06:45:11;;;;;;;3.55;1.08;;;18.10;99.90;;;;;;10441618;28;20220;-85
2022/07/27 06:50:32;;;;;;;2.50;1.10;;;18.70;92.60;;;;;;10427782;28;20200;-84
2022/07/27 06:56:02;;;;;;;4.43;1.00;;;;;;;;;;10481016;28;20191;-85
2022/07/27 07:01:26;;;;;;;8.23;1.27;;;;;;;;;;10495649;28;20261;-83
2022/07/27 07:06:50;;;;;;;4.95;1.38;;;;;;;;;;10495896;28;20223;-86
2022/07/27 07:12:11;;;;;;;1.85;0.88;;;21.20;97.60;;;;;;10498374;28;20227;-85
2022/07/27 07:17:33;;;;;;;2.70;1.00;;;21.30;57.60;;;;;;10452306;28;20243;-84
2022/07/27 07:22:55;;;;;;;4.93;1.15;;;21.10;56.10;;;;;;10467406;28;20227;-83
2022/07/27 07:28:20;;;;;;;1.17;0.88;;;20.90;53.50;;;;;;10448535;28;20199;-83
2022/07/27 07:33:41;;;;;;;3.20;0.90;;;20.50;55.20;;;;;;10476198;28;20270;-82
2022/07/27 07:39:03;;;;;;;5.28;1.25;;;19.80;60.10;;;;;;10437791;28;20220;-83
2022/07/27 07:44:25;;;;;;;4.38;0.95;;;19.30;67.20;;;;;;10476048;28;20196;-87
2022/07/27 07:49:46;;;;;;;3.78;1.17;;;18.80;79.40;;;;;;10461499;28;20271;-79
2022/07/27 07:55:08;;;;;;;2.78;0.90;;;18.60;85.90;;;;;;10492151;28;20586;-83
2022/07/27 08:00:30;;;;;;;5.60;1.52;;;18.30;90.10;;;;;;10461605;28;20250;-85
2022/07/27 08:05:51;;;;;;;7.20;1.52;;;18.40;93.20;;;;;;10447607;28;20203;-84
2022/07/27 08:11:12;;;;;;;4.32;1.40;;;18.60;91.90;;;;;;10459692;28;20304;-81
2022/07/27 08:16:34;;;;;;;12.13;1.23;;;19.20;91.50;;;;;;10442002;28;20227;-81
2022/07/27 08:21:55;;;;;;;4.97;1.25;;;19.70;88.20;;;;;;10459196;28;20257;-82
2022/07/27 08:27:17;;;;;;;4.03;1.25;;;19.50;89.90;;;;;;10473541;28;20215;-85
2022/07/27 08:33:05;;;;;;;4.30;1.27;;;19.40;89.00;;;;;;10459950;28;20210;-87
2022/07/27 08:38:27;;;;;;;4.97;1.08;;;19.10;89.50;;;;;;10474324;28;20219;-82
2022/07/27 08:43:48;;;;;;;6.40;1.23;;;19.00;88.30;;;;;;10471562;28;20199;-81
2022/07/27 08:49:11;;;;;;;2.13;1.10;;;18.70;96.60;;;;;;10482764;28;20286;-83
2022/07/27 08:54:33;;;;;;;5.07;1.02;;;18.40;99.90;;;;;;10432634;28;20223;-82
2022/07/27 08:59:55;;;;;;;13.02;2.05;;;18.50;99.90;;;;;;10471665;28;20226;-82
2022/07/27 09:05:20;;;;;;;4.90;1.33;;;19.20;1.00;;;;;;10458322;28;20260;-82
2022/07/27 09:10:41;;;;;;;4.55;1.40;;;19.70;1.00;;;;;;10457876;28;20195;-79
2022/07/27 09:16:05;;;;;;;3.53;1.30;;;19.50;99.90;;;;;;10489447;28;20278;-83
2022/07/27 09:21:42;;;;;;;3.38;0.88;;;20.00;45.00;;;;;;10460178;28;20266;-81
2022/07/27 09:27:04;;;;;;;5.43;2.83;;;20.20;99.90;;;;;;10457419;28;20196;-80
2022/07/27 09:32:25;;;;;;;2.30;0.70;;;20.20;99.90;;;;;;10458398;28;20196;-90
2022/07/27 09:37:47;;;;;;;2.42;0.82;;;20.20;14.40;;;;;;10458389;28;20211;-84
2022/07/27 09:43:12;;;;;;;4.05;0.85;;;20.00;80.00;;;;;;10457269;28;20253;-80
2022/07/27 09:48:51;;;;;;;2.03;0.70;;;19.70;1.00;;;;;;10480160;28;20195;-81
2022/07/27 09:54:13;;;;;;;3.30;0.85;;;19.70;1.00;;;;;;10479997;28;20191;-83
2022/07/27 09:59:35;;;;;;;2.33;0.60;;;19.70;99.90;;;;;;10466446;28;20250;-81
2022/07/27 10:04:56;;;;;;;1.77;0.60;;;19.50;1.00;;;;;;10464384;28;20290;-84
2022/07/27 10:10:18;;;;;;;10.63;1.15;;;19.30;99.90;;;;;;10478855;28;20265;-80
2022/07/27 10:15:40;;;;;;;2.53;0.73;;;19.60;99.90;;;;;;10478126;28;20247;-83
2022/07/27 10:21:09;;;;;;;3.08;0.85;;;20.30;99.90;;;;;;10452630;28;20571;-83
2022/07/27 10:26:34;;;;;;;2.83;0.57;;;20.90;1.00;;;;;;10436370;28;20193;-80
2022/07/27 10:31:59;;;;;;;3.60;0.90;;;20.90;99.90;;;;;;10435985;28;20212;-79
2022/07/27 10:37:27;;;;;;;4.35;0.90;;;20.50;1.00;;;;;;10434839;28;20227;-80
2022/07/27 10:42:49;;;;;;;3.58;1.08;;;20.20;99.90;;;;;;10468668;28;20222;-80
2022/07/27 10:48:46;;;;;;;5.05;1.02;;;19.70;79.90;;;;;;10459805;28;20203;-80
2022/07/27 10:54:25;;;;;;;2.35;0.80;;;19.30;47.10;;;;;;10472604;28;20215;-79
2022/07/27 10:59:48;;;;;;;2.40;0.90;;;19.20;1.00;;;;;;10489288;28;20251;-80
2022/07/27 11:05:30;;;;;;;2.20;1.33;;;19.00;99.90;;;;;;10458813;28;20206;-81
2022/07/27 11:11:22;;;;;;;2.90;0.82;;;18.80;1.00;;;;;;10469730;28;20305;-82
2022/07/27 11:16:43;;;;;;;1.65;1.00;;;19.20;36.20;;;;;;10464134;28;20215;-80
2022/07/27 11:22:12;;;;;;;9.35;1.45;;;20.50;1.00;;;;;;10464475;28;20269;-80
2022/07/27 11:27:49;;;;;;;6.03;2.50;;;21.80;2.60;;;;;;10439738;28;20227;-80
2022/07/27 11:33:10;;;;;;;2.88;1.00;;;23.10;99.90;;;;;;10449380;28;20521;-80
2022/07/27 11:38:51;;;;;;;7.30;1.20;;;23.10;99.90;;;;;;10414109;28;20224;-80
2022/07/27 11:44:15;;;;;;;9.88;1.52;;;22.70;1.00;;;;;;10414737;28;20292;-80
2022/07/27 11:49:36;;;;;;;2.25;1.00;;;22.30;99.90;;;;;;10405360;28;20204;-80
2022/07/27 11:54:58;;;;;;;2.25;1.25;;;21.80;99.90;;;;;;10432043;28;20202;-81
2022/07/27 12:00:19;;;;;;;5.28;1.00;;;21.40;99.90;;;;;;10418396;28;20397;-83
2022/07/27 12:05:41;;;;;;;3.03;0.95;;;20.70;99.90;;;;;;10384164;28;20213;-82
2022/07/27 12:11:05;;;;;;;2.25;1.02;;;20.20;1.00;;;;;;10391075;28;20236;-82
2022/07/27 12:16:27;;;;;;;2.38;1.00;;;19.90;1.00;;;;;;10431622;28;20521;-82
2022/07/27 12:21:53;;;;;;;4.18;0.93;;;19.80;1.00;;;;;;10395304;28;20822;-82
2022/07/27 12:27:15;;;;;;;4.03;1.50;;;19.70;27.40;;;;;;10432803;28;20206;-82
2022/07/27 12:32:44;;;;;;;3.92;1.92;;;19.60;99.90;;;;;;10404239;28;20510;-84
2022/07/27 12:38:08;;;;;;;9.13;1.30;;;19.60;99.90;;;;;;10430264;28;20236;-82
2022/07/27 12:43:29;;;;;;;5.15;1.10;;;19.50;1.00;;;;;;10406769;28;20204;-84
2022/07/27 12:48:50;;;;;;;5.63;1.23;;;19.70;1.00;;;;;;10459641;28;20275;-84
2022/07/27 12:54:12;;;;;;;4.70;1.60;;;19.80;1.00;;;;;;10418438;28;20219;-79
2022/07/27 12:59:34;;;;;;;4.15;1.17;;;20.00;1.00;;;;;;10390819;28;20229;-81
2022/07/27 13:04:55;;;;;;;3.03;1.23;;;20.10;1.00;;;;;;10430741;28;20208;-84
2022/07/27 13:10:18;;;;;;;4.28;1.38;;;20.30;1.00;;;;;;10407877;28;20284;-82
2022/07/27 13:15:39;;;;;;;22.65;1.80;;;20.30;1.00;;;;;;10436378;28;20446;-85
2022/07/27 13:21:01;;;;;;;4.53;1.17;;;20.30;99.90;;;;;;10401417;28;20240;-84
2022/07/27 13:26:22;;;;;;;4.10;1.85;;;20.30;99.90;;;;;;10416376;28;20546;-83
2022/07/27 13:31:44;;;;;;;6.90;2.63;;;20.10;99.90;;;;;;10401693;28;20199;-85
2022/07/27 13:37:10;;;;;;;4.63;1.35;;;19.90;1.00;;;;;;10390775;28;20260;-92
2022/07/27 13:42:31;;;;;;;5.43;1.42;;;20.10;1.00;;;;;;10407824;28;20557;-85
2022/07/27 13:47:53;;;;;;;47.72;3.17;;;20.40;1.00;;;;;;10429262;28;20265;-84
2022/07/27 13:53:15;;;;;;;5.07;1.02;;;20.60;99.90;;;;;;10449888;28;20208;-84
2022/07/27 13:58:39;;;;;;;2.15;0.98;;;20.40;99.90;;;;;;10457241;28;20258;-81
2022/07/27 14:04:04;;;;;;;3.95;0.70;;;20.20;99.90;;;;;;10415530;28;20242;-82
2022/07/27 14:10:30;;;;;;;5.00;0.98;;;20.20;1.00;;;;;;10428648;28;20212;-82
2022/07/27 14:15:06;;;;;;;4.03;1.33;;;20.20;1.00;;;;;;10427551;28;20252;-84
2022/07/27 14:20:28;;;;;;;3.45;1.05;;;20.10;1.00;;;;;;10447528;28;20228;-81
2022/07/27 14:25:51;;;;;;;5.45;1.02;;;19.90;1.00;;;;;;10433297;28;20200;-83
2022/07/27 14:31:12;;;;;;;1.85;0.80;;;19.90;1.00;;;;;;10445257;28;20208;-79
2022/07/27 14:36:36;;;;;;;2.65;0.70;;;19.90;1.00;;;;;;10392884;28;20223;-79
2022/07/27 14:41:57;;;;;;;3.15;1.02;;;19.90;1.00;;;;;;10397462;28;20225;-79
2022/07/27 14:47:19;;;;;;;3.63;1.23;;;19.80;1.00;;;;;;10422331;28;20434;-82
2022/07/27 14:52:40;;;;;;;3.00;0.98;;;19.60;1.00;;;;;;10452483;28;20630;-81
2022/07/27 14:58:02;;;;;;;16.88;7.55;;;19.30;98.80;;;;;;10437472;28;20308;-81
2022/07/27 15:03:24;;;;;;;1.98;1.10;;;18.90;99.90;;;;;;10419349;28;20207;-83
2022/07/27 15:08:45;;;;;;;4.18;0.93;;;18.80;99.90;;;;;;10408242;28;20200;-83
2022/07/27 15:14:07;;;;;;;2.85;0.80;;;18.80;1.00;;;;;;10411877;28;20410;-82
2022/07/27 15:19:29;;;;;;;2.33;1.20;;;18.90;1.00;;;;;;10425723;28;20258;-82
2022/07/27 15:24:51;;;;;;;2.28;1.38;;;19.00;1.00;;;;;;10425661;28;20197;-81
2022/07/27 15:30:12;;;;;;;1.38;0.93;;;19.10;1.00;;;;;;10463689;28;20197;-81
2022/07/27 15:35:34;;;;;;;1.30;0.70;;;19.10;1.00;;;;;;10439296;28;20203;-80
2022/07/27 15:40:56;;;;;;;9.98;1.60;;;19.00;1.00;;;;;;10467420;28;20263;-79
2022/07/27 15:46:17;;;;;;;2.15;1.15;;;18.70;1.00;;;;;;10414224;28;20282;-82
2022/07/27 15:51:39;;;;;;;3.42;0.90;;;18.60;1.00;;;;;;10411877;28;20240;-82
2022/07/27 15:57:01;;;;;;;3.55;1.23;;;18.60;1.00;;;;;;10429581;28;20204;-80
2022/07/27 16:02:25;;;;;;;2.80;1.00;;;18.60;1.00;;;;;;10398336;28;20230;-79
2022/07/27 16:07:46;;;;;;;5.72;1.50;;;18.70;1.00;;;;;;10434179;28;20199;-79
2022/07/27 16:13:09;;;;;;;5.00;1.10;;;18.70;99.90;;;;;;10423433;28;20232;-81
2022/07/27 16:18:31;;;;;;;2.88;0.90;;;18.40;99.90;;;;;;10437293;28;20215;-80
2022/07/27 16:23:56;;;;;;;3.28;0.95;;;;;;;;;;10437464;28;20196;-79
2022/07/27 16:29:17;;;;;;;3.67;1.20;;;18.30;1.00;;;;;;10436724;28;20192;-80
2022/07/27 16:34:39;;;;;;;4.30;0.95;;;18.30;27.20;;;;;;10450964;28;20206;-82
2022/07/27 16:40:00;;;;;;;3.80;1.02;;;18.40;66.10;;;;;;10436842;28;20223;-82
2022/07/27 16:45:22;;;;;;;2.78;0.75;;;18.50;99.90;;;;;;10436732;28;20266;-82
2022/07/27 16:50:43;;;;;;;4.30;1.15;;;18.50;99.90;;;;;;10437706;28;20223;-82
2022/07/27 16:56:05;;;;;;;1.77;1.00;;;18.30;99.90;;;;;;10451180;28;20196;-82
2022/07/27 17:01:27;;;;;;;2.45;1.23;;;18.10;99.90;;;;;;10414444;28;20282;-81
2022/07/27 17:06:49;;;;;;;2.72;1.10;;;18.10;49.40;;;;;;10416897;28;20246;-81
2022/07/27 17:12:10;;;;;;;4.82;1.77;;;18.20;1.00;;;;;;10394947;28;20228;-79
2022/07/27 17:17:31;;;;;;;4.03;1.27;;;17.40;1.00;;;;;;10431394;28;20289;-78
2022/07/27 17:22:54;;;;;;;3.38;1.00;;;17.30;99.90;;;;;;10436382;28;20236;-79
2022/07/27 17:28:16;;;;;;;1.77;0.80;;;17.10;1.00;;;;;;10430320;28;20209;-79
2022/07/27 17:33:39;;;;;;;2.20;1.15;;;17.00;1.00;;;;;;10435276;28;20559;-79
2022/07/27 17:39:01;;;;;;;4.78;1.92;;;16.90;1.00;;;;;;10435305;28;20454;-79
2022/07/27 17:44:22;;;;;;;2.90;1.42;;;17.00;1.00;;;;;;10436213;28;20200;-80
2022/07/27 17:49:44;;;;;;;3.55;1.42;;;16.90;1.00;;;;;;10453903;28;20224;-79
2022/07/27 17:55:06;;;;;;;2.70;1.10;;;16.90;1.00;;;;;;10440008;28;20222;-80
2022/07/27 18:00:28;;;;;;;4.70;1.60;;;17.00;1.00;;;;;;10477088;28;20225;-79
2022/07/27 18:05:49;;;;;;;4.07;1.65;;;17.00;99.90;;;;;;10431977;28;20382;-79
2022/07/27 18:11:13;;;;;;;5.70;1.98;;;16.90;76.90;;;;;;10406674;28;20562;-79
2022/07/27 18:16:34;;;;;;;4.32;1.45;;;16.90;1.00;;;;;;10431194;28;20205;-79
2022/07/27 18:21:59;;;;;;;4.00;1.38;;;16.70;1.00;;;;;;10445050;28;20278;-79
2022/07/27 18:27:21;;;;;;;4.38;1.55;;;16.70;27.80;;;;;;10442261;28;20195;-79
2022/07/27 18:32:44;;;;;;;5.45;1.60;;;16.70;99.90;;;;;;10417627;28;20207;-79
2022/07/27 18:38:09;;;;;;;2.30;1.35;;;16.70;99.90;;;;;;10414764;28;20498;-79
2022/07/27 18:43:30;;;;;;;3.83;1.35;;;16.70;99.90;;;;;;10414491;28;20245;-79
2022/07/27 18:48:52;;;;;;;2.50;1.25;;;16.70;99.90;;;;;;10413277;28;20421;-79
2022/07/27 18:54:13;;;;;;;3.22;1.20;;;16.70;99.90;;;;;;10437686;28;20224;-79
2022/07/27 18:59:35;;;;;;;4.10;1.10;;;16.80;99.90;;;;;;10468148;28;20450;-80
2022/07/27 19:04:56;;;;;;;2.78;1.40;;;16.70;99.90;;;;;;10453383;28;20248;-80
2022/07/27 19:10:18;;;;;;;2.95;1.00;;;16.60;1.00;;;;;;10440209;28;20521;-80
2022/07/27 19:15:40;;;;;;;5.13;1.50;;;16.60;1.00;;;;;;10434538;28;20235;-80
2022/07/27 19:21:01;;;;;;;5.03;1.15;;;16.70;1.00;;;;;;10439392;28;20271;-80
2022/07/27 19:26:23;;;;;;;3.42;1.40;;;16.60;1.00;;;;;;10442402;28;20198;-79
2022/07/27 19:31:44;;;;;;;3.83;1.60;;;16.60;1.00;;;;;;10439573;28;20425;-81
2022/07/27 19:37:06;;;;;;;2.63;1.35;;;16.60;1.00;;;;;;10440479;28;20198;-79
2022/07/27 19:42:28;;;;;;;3.13;0.93;;;16.50;1.00;;;;;;10439225;28;20447;-79
2022/07/27 19:47:49;;;;;;;4.40;1.10;;;16.50;1.00;;;;;;10438608;28;20205;-79
2022/07/27 19:53:11;;;;;;;4.45;1.67;;;16.60;13.20;;;;;;10439872;28;20195;-80
2022/07/27 19:58:33;;;;;;;3.05;1.38;;;16.50;85.50;;;;;;10428764;28;20211;-80
2022/07/27 20:03:55;;;;;;;5.53;1.60;;;16.50;99.90;;;;;;10438984;28;20199;-80
2022/07/27 20:09:16;;;;;;;3.25;1.55;;;16.50;99.90;;;;;;10424253;28;20209;-79
2022/07/27 20:14:38;;;;;;;3.35;1.35;;;16.40;99.90;;;;;;10437389;28;20448;-80
2022/07/27 20:19:59;;;;;;;6.28;1.52;;;16.40;99.90;;;;;;10436628;28;20415;-80
2022/07/27 20:25:21;;;;;;;3.55;1.10;;;16.40;99.90;;;;;;10423619;28;20242;-80
2022/07/27 20:30:43;;;;;;;2.17;1.30;;;16.30;99.90;;;;;;10436359;28;20389;-79
2022/07/27 20:36:04;;;;;;;2.72;0.90;;;16.30;99.90;;;;;;10453812;28;20396;-79
2022/07/27 20:41:26;;;;;;;2.65;1.27;;;16.30;99.90;;;;;;10437177;28;20222;-79
2022/07/27 20:46:47;;;;;;;4.88;1.33;;;16.10;1.00;;;;;;10408755;28;20287;-80
2022/07/27 20:52:08;;;;;;;3.28;1.33;;;16.00;1.00;;;;;;10434658;28;20203;-80
2022/07/27 20:57:30;;;;;;;2.30;0.88;;;15.90;1.00;;;;;;10462635;28;20194;-80
2022/07/27 21:02:52;;;;;;;3.25;1.20;;;15.80;1.00;;;;;;10478657;28;20226;-80
2022/07/27 21:08:13;;;;;;;4.10;1.27;;;15.80;1.00;;;;;;10432183;28;20400;-79
2022/07/27 21:13:35;;;;;;;3.78;1.10;;;15.80;1.00;;;;;;10436549;28;20241;-80
2022/07/27 21:18:56;;;;;;;4.32;1.50;;;15.80;1.00;;;;;;10436120;28;20268;-81
2022/07/27 21:24:19;;;;;;;3.50;1.50;;;15.70;1.00;;;;;;10446151;28;20251;-81
2022/07/27 21:29:41;;;;;;;4.18;1.10;;;15.70;1.00;;;;;;10382306;28;20192;-81
2022/07/27 21:35:03;;;;;;;4.32;1.65;;;15.70;1.00;;;;;;10394559;28;20507;-81
2022/07/27 21:40:25;;;;;;;2.28;1.15;;;15.70;1.00;;;;;;10395642;28;20222;-81
2022/07/27 21:45:46;;;;;;;2.63;1.10;;;15.60;1.00;;;;;;10430872;28;20455;-81
2022/07/27 21:51:07;;;;;;;2.80;1.02;;;15.50;1.00;;;;;;10403643;28;20253;-81
2022/07/27 21:56:29;;;;;;;3.25;1.00;;;15.50;1.00;;;;;;10425098;28;20205;-81
2022/07/27 22:01:50;;;;;;;3.50;1.02;;;15.50;1.00;;;;;;10421186;28;20229;-81
2022/07/27 22:07:11;;;;;;;3.08;1.15;;;15.60;1.00;;;;;;10415174;28;20222;-81
2022/07/27 22:12:33;;;;;;;2.92;1.38;;;15.60;1.00;;;;;;10458935;28;20301;-81
2022/07/27 22:17:55;;;;;;;3.53;1.10;;;15.60;1.00;;;;;;10428645;28;20488;-80
2022/07/27 22:23:16;;;;;;;5.25;1.48;;;15.60;1.00;;;;;;10428406;28;20236;-81
2022/07/27 22:28:38;;;;;;;3.55;1.63;;;15.60;1.00;;;;;;10435353;28;20255;-81
2022/07/27 22:34:00;;;;;;;4.35;1.90;;;15.60;1.00;;;;;;10401955;28;20384;-81
2022/07/27 22:39:21;;;;;;;3.72;1.27;;;15.70;1.00;;;;;;10446730;28;20229;-80
2022/07/27 22:44:43;;;;;;;6.13;1.65;;;15.80;1.00;;;;;;10469919;28;20203;-82
2022/07/27 22:50:06;;;;;;;3.60;1.27;;;15.70;1.00;;;;;;10442473;28;20210;-81
2022/07/27 22:55:28;;;;;;;4.65;1.25;;;15.70;1.00;;;;;;10449868;28;20276;-81
2022/07/27 23:00:49;;;;;;;2.25;1.23;;;15.60;1.00;;;;;;10388581;28;20232;-79
2022/07/27 23:06:12;;;;;;;5.45;1.67;;;15.60;1.00;;;;;;10421674;28;20219;-79
2022/07/27 23:11:34;;;;;;;3.53;1.35;;;15.70;1.00;;;;;;10468517;28;20299;-79
2022/07/27 23:16:56;;;;;;;7.13;1.38;;;15.60;1.00;;;;;;10454221;28;20194;-82
2022/07/27 23:22:18;;;;;;;4.43;1.50;;;15.50;1.00;;;;;;10426103;28;20325;-81
2022/07/27 23:27:39;;;;;;;3.78;1.63;;;15.40;1.00;;;;;;10457116;28;20410;-81
2022/07/27 23:33:01;;;;;;;2.72;1.38;;;15.30;1.00;;;;;;10439691;28;20210;-80
2022/07/27 23:38:22;;;;;;;2.20;1.10;;;15.30;1.00;;;;;;10453164;28;20203;-80
2022/07/27 23:43:43;;;;;;;6.40;1.90;;;15.10;1.00;;;;;;10453266;28;20589;-81
2022/07/27 23:49:05;;;;;;;4.38;1.40;;;15.10;1.00;;;;;;10440248;28;20274;-80
2022/07/27 23:54:26;;;;;;;4.40;1.20;;;15.00;1.00;;;;;;10439274;28;20226;-81
2022/07/27 23:59:47;;;;;;;6.45;1.83;;;14.90;15.30;;;;;;10405245;28;20222;-80
